Time;durP1;ratioP1;P1;durP2;ratioP2;P2;SDS_P1;SDS_P2;PMS_P1;PMS_P2;Temp;Humidity;BMP_temperature;BMP_pressure;BME280_temperature;BME280_humidity;BME280_pressure;Samples;Min_cycle;Max_cycle;Signal;HPM_P1;HPM_P2
2022/02/14 00:02:05;;;;;;;8.70;4.10;;;8.20;99.90;;;;;;5031719;28;20267;-82
2022/02/14 00:04:31;;;;;;;4.70;3.57;;;8.10;99.90;;;;;;5048921;28;20200;-82
2022/02/14 00:06:57;;;;;;;9.50;3.93;;;8.10;99.90;;;;;;5043911;28;20439;-82
2022/02/14 00:09:23;;;;;;;7.23;3.50;;;8.10;99.90;;;;;;5044530;28;20828;-82
2022/02/14 00:11:49;;;;;;;6.90;3.57;;;8.10;99.90;;;;;;5044947;28;20215;-83
2022/02/14 00:14:15;;;;;;;5.10;3.57;;;8.20;99.90;;;;;;5075953;28;20419;-82
2022/02/14 00:16:41;;;;;;;8.63;3.87;;;8.20;99.90;;;;;;5042088;28;20524;-82
2022/02/14 00:19:06;;;;;;;4.90;4.00;;;8.30;99.90;;;;;;5042673;28;20254;-81
2022/02/14 00:21:32;;;;;;;4.70;3.03;;;8.20;99.90;;;;;;5042199;28;20176;-82
2022/02/14 00:23:59;;;;;;;6.50;3.90;;;8.20;99.90;;;;;;5041589;28;20172;-82
2022/02/14 00:26:24;;;;;;;5.60;3.40;;;8.20;99.90;;;;;;5040626;28;20942;-82
2022/02/14 00:28:50;;;;;;;5.67;3.27;;;8.30;99.90;;;;;;5040526;28;20423;-82
2022/02/14 00:31:16;;;;;;;6.90;3.60;;;8.30;99.90;;;;;;5040831;28;20215;-82
2022/02/14 00:33:42;;;;;;;6.03;3.23;;;8.30;99.90;;;;;;5040373;28;20180;-82
2022/02/14 00:36:08;;;;;;;4.77;3.23;;;8.30;99.90;;;;;;5039118;28;20303;-81
2022/02/14 00:38:36;;;;;;;5.70;3.20;;;8.30;99.90;;;;;;5038825;28;20191;-81
2022/02/14 00:41:02;;;;;;;10.60;3.70;;;8.30;99.90;;;;;;5039136;28;20187;-82
2022/02/14 00:43:28;;;;;;;6.40;3.87;;;8.30;99.90;;;;;;5037897;28;20415;-81
2022/02/14 00:45:54;;;;;;;6.83;3.43;;;8.30;99.90;;;;;;5037691;28;20961;-82
2022/02/14 00:48:20;;;;;;;4.50;3.53;;;8.40;99.90;;;;;;5036702;28;20181;-82
2022/02/14 00:50:45;;;;;;;5.63;3.40;;;8.30;99.90;;;;;;5036531;28;20185;-82
2022/02/14 00:53:11;;;;;;;6.27;3.53;;;8.30;99.90;;;;;;5036207;28;20269;-81
2022/02/14 00:55:37;;;;;;;4.07;2.90;;;8.40;99.90;;;;;;5036650;28;20236;-81
2022/02/14 00:58:04;;;;;;;7.10;3.97;;;8.40;99.90;;;;;;5040935;28;20168;-81
2022/02/14 01:00:29;;;;;;;5.63;3.33;;;8.40;99.90;;;;;;5053336;28;20176;-82
2022/02/14 01:02:55;;;;;;;5.53;2.80;;;8.40;99.90;;;;;;5052313;28;20439;-82
2022/02/14 01:05:21;;;;;;;5.47;3.17;;;8.50;99.90;;;;;;5050357;28;20192;-82
2022/02/14 01:07:47;;;;;;;4.93;3.27;;;8.50;99.90;;;;;;5050171;28;20426;-82
2022/02/14 01:10:14;;;;;;;6.13;4.23;;;8.50;99.90;;;;;;5050107;28;20260;-82
2022/02/14 01:12:41;;;;;;;6.53;3.10;;;8.50;99.90;;;;;;5048519;28;20180;-81
2022/02/14 01:15:08;;;;;;;5.33;3.17;;;8.50;99.90;;;;;;5048349;28;20504;-82
2022/02/14 01:17:35;;;;;;;5.83;3.17;;;8.50;99.90;;;;;;5047972;28;20859;-82
2022/02/14 01:20:04;;;;;;;6.57;3.23;;;8.50;99.90;;;;;;5043584;28;20494;-81
2022/02/14 01:22:30;;;;;;;6.33;3.20;;;8.50;99.90;;;;;;5036060;28;20422;-81
2022/02/14 01:24:55;;;;;;;5.40;3.10;;;8.50;99.90;;;;;;5034503;28;20800;-81
2022/02/14 01:27:21;;;;;;;5.10;3.33;;;8.40;99.90;;;;;;5035070;28;20208;-81
2022/02/14 01:29:47;;;;;;;4.90;3.13;;;8.50;99.90;;;;;;5035095;28;20184;-82
2022/02/14 01:32:13;;;;;;;5.80;3.53;;;8.50;99.90;;;;;;5034802;28;20246;-81
2022/02/14 01:34:39;;;;;;;4.33;2.60;;;8.50;99.90;;;;;;5034636;28;20204;-81
2022/02/14 01:37:05;;;;;;;6.20;2.97;;;8.50;99.90;;;;;;5035651;28;20235;-82
2022/02/14 01:39:31;;;;;;;4.97;2.80;;;8.50;99.90;;;;;;5035468;28;20212;-81
2022/02/14 01:41:57;;;;;;;5.70;2.60;;;8.60;99.90;;;;;;5034510;28;20431;-81
2022/02/14 01:44:41;;;;;;;4.43;2.73;;;8.80;99.90;;;;;;5035787;28;20853;-82
2022/02/14 01:47:15;;;;;;;4.83;2.80;;;8.80;99.90;;;;;;5035497;28;20501;-82
2022/02/14 01:49:43;;;;;;;6.00;3.20;;;8.80;99.90;;;;;;5033748;28;20801;-81
2022/02/14 01:52:11;;;;;;;5.10;2.33;;;8.90;99.90;;;;;;5036118;28;20929;-81
2022/02/14 01:54:40;;;;;;;4.67;2.70;;;8.90;99.90;;;;;;5035577;28;20485;-81
2022/02/14 01:57:07;;;;;;;6.07;3.00;;;9.00;99.90;;;;;;5035482;28;20863;-82
2022/02/14 01:59:33;;;;;;;5.10;2.80;;;9.00;99.90;;;;;;5036064;28;20439;-81
2022/02/14 02:02:01;;;;;;;6.67;3.27;;;9.00;99.90;;;;;;5036219;28;20415;-81
2022/02/14 02:04:27;;;;;;;5.60;2.90;;;9.10;99.90;;;;;;5035125;28;20428;-81
2022/02/14 02:06:53;;;;;;;5.30;2.63;;;9.00;99.90;;;;;;5034567;28;20465;-81
2022/02/14 02:09:19;;;;;;;5.03;3.10;;;9.10;99.90;;;;;;5034464;28;20825;-81
2022/02/14 02:14:29;;;;;;;5.00;2.37;;;9.10;99.90;;;;;;5036702;28;20505;-81
2022/02/14 02:16:55;;;;;;;7.27;2.67;;;9.10;99.90;;;;;;5034326;28;20435;-81
2022/02/14 02:19:21;;;;;;;4.30;2.80;;;9.10;99.90;;;;;;5036542;28;20419;-81
2022/02/14 02:21:49;;;;;;;4.17;2.70;;;9.10;99.90;;;;;;5037536;28;20411;-81
2022/02/14 02:24:19;;;;;;;5.90;2.73;;;9.10;99.90;;;;;;5070674;28;20514;-81
2022/02/14 02:26:47;;;;;;;5.23;2.10;;;9.10;99.90;;;;;;5037155;28;20430;-81
2022/02/14 02:29:14;;;;;;;4.77;2.90;;;9.10;99.90;;;;;;5036574;28;20498;-81
2022/02/14 02:31:42;;;;;;;4.50;2.63;;;9.10;99.90;;;;;;5049274;28;20424;-82
2022/02/14 02:34:08;;;;;;;4.03;2.50;;;9.10;99.90;;;;;;5048325;28;20427;-82
2022/02/14 02:36:45;;;;;;;7.13;2.57;;;9.20;99.90;;;;;;5047977;28;20439;-82
2022/02/14 02:39:11;;;;;;;6.97;2.97;;;9.10;99.90;;;;;;5046939;28;20180;-82
2022/02/14 02:41:37;;;;;;;5.03;2.77;;;9.20;99.90;;;;;;5040725;28;20485;-81
2022/02/14 02:44:03;;;;;;;5.17;2.57;;;9.20;99.90;;;;;;5036088;28;20639;-81
2022/02/14 02:46:28;;;;;;;4.80;2.83;;;9.20;99.90;;;;;;5035356;28;20208;-81
2022/02/14 02:48:54;;;;;;;4.60;2.80;;;9.20;99.90;;;;;;5035993;28;20258;-81
2022/02/14 02:51:20;;;;;;;5.77;2.60;;;9.10;99.90;;;;;;5036167;28;20558;-82
2022/02/14 02:53:46;;;;;;;5.13;2.63;;;9.10;99.90;;;;;;5036359;28;20263;-81
2022/02/14 02:56:11;;;;;;;10.53;3.90;;;9.10;99.90;;;;;;5037056;28;20220;-81
2022/02/14 02:58:37;;;;;;;6.97;3.57;;;9.10;99.90;;;;;;5036981;28;20196;-81
2022/02/14 03:01:03;;;;;;;4.43;2.40;;;9.00;99.90;;;;;;5037613;28;20229;-80
2022/02/14 03:03:29;;;;;;;5.57;2.83;;;9.00;99.90;;;;;;5036314;28;20216;-81
2022/02/14 03:05:58;;;;;;;6.37;2.70;;;9.00;99.90;;;;;;5036876;28;20215;-81
2022/02/14 03:08:23;;;;;;;5.17;2.63;;;9.00;99.90;;;;;;5035345;28;20610;-81
2022/02/14 03:10:49;;;;;;;5.90;2.77;;;9.00;99.90;;;;;;5035813;28;20510;-82
2022/02/14 03:13:15;;;;;;;7.20;2.80;;;9.00;99.90;;;;;;5035253;28;20188;-81
2022/02/14 03:15:41;;;;;;;3.57;2.13;;;9.10;99.90;;;;;;5035681;28;20224;-80
2022/02/14 03:18:06;;;;;;;4.77;2.70;;;9.10;99.90;;;;;;5035067;28;20191;-81
2022/02/14 03:20:32;;;;;;;5.40;2.40;;;9.10;99.90;;;;;;5034882;28;20271;-81
2022/02/14 03:22:58;;;;;;;6.10;2.57;;;9.10;99.90;;;;;;5035249;28;20217;-81
2022/02/14 03:25:23;;;;;;;5.57;2.17;;;9.10;99.90;;;;;;5036068;28;20188;-81
2022/02/14 03:27:49;;;;;;;3.13;2.30;;;9.20;99.90;;;;;;5034618;28;20194;-81
2022/02/14 03:30:15;;;;;;;5.17;2.60;;;9.20;99.90;;;;;;5035364;28;20263;-81
2022/02/14 03:32:41;;;;;;;4.80;2.20;;;9.20;99.90;;;;;;5034799;28;20246;-81
2022/02/14 03:35:07;;;;;;;7.23;2.87;;;9.20;99.90;;;;;;5034967;28;20236;-82
2022/02/14 03:37:33;;;;;;;5.97;2.83;;;9.30;99.90;;;;;;5034359;28;20686;-81
2022/02/14 03:39:59;;;;;;;5.13;2.70;;;9.30;99.90;;;;;;5034904;28;20422;-81
2022/02/14 03:42:25;;;;;;;5.77;2.37;;;9.30;99.90;;;;;;5034327;28;20427;-81
2022/02/14 03:44:51;;;;;;;10.77;2.57;;;9.30;99.90;;;;;;5033740;28;20262;-82
2022/02/14 03:47:17;;;;;;;4.20;2.20;;;9.30;99.90;;;;;;5033445;28;20204;-81
2022/02/14 03:49:43;;;;;;;7.37;2.53;;;9.30;99.90;;;;;;5034331;28;20415;-82
2022/02/14 03:52:08;;;;;;;4.70;3.57;;;9.30;99.90;;;;;;5049146;28;20180;-82
2022/02/14 03:54:34;;;;;;;5.33;2.57;;;9.30;99.90;;;;;;5054739;28;20207;-82
2022/02/14 03:57:00;;;;;;;4.90;2.73;;;9.30;99.90;;;;;;5053914;28;20235;-82
2022/02/14 03:59:26;;;;;;;4.43;2.33;;;9.30;99.90;;;;;;5053653;28;20215;-81
2022/02/14 04:01:52;;;;;;;7.70;4.47;;;9.20;99.90;;;;;;5052479;28;20204;-83
2022/02/14 04:04:18;;;;;;;6.30;3.70;;;9.20;99.90;;;;;;5051277;28;20438;-82
2022/02/14 04:06:43;;;;;;;5.10;2.80;;;9.20;99.90;;;;;;5049563;28;20430;-81
2022/02/14 04:09:09;;;;;;;5.40;3.33;;;9.20;99.90;;;;;;5046717;28;20226;-83
2022/02/14 04:11:35;;;;;;;4.43;2.90;;;9.20;99.90;;;;;;5045502;28;20215;-81
2022/02/14 04:14:01;;;;;;;5.37;2.80;;;9.20;99.90;;;;;;5048605;28;20625;-82
2022/02/14 04:16:27;;;;;;;5.40;2.63;;;9.20;99.90;;;;;;5046526;28;20216;-82
2022/02/14 04:18:52;;;;;;;14.07;3.40;;;9.20;99.90;;;;;;5046420;28;20456;-81
2022/02/14 04:21:18;;;;;;;6.83;2.83;;;9.10;99.90;;;;;;5045581;28;20238;-81
2022/02/14 04:23:44;;;;;;;6.80;2.60;;;9.10;99.90;;;;;;5045201;28;20185;-81
2022/02/14 04:26:10;;;;;;;3.63;2.03;;;9.20;99.90;;;;;;5044857;28;20241;-81
2022/02/14 04:28:35;;;;;;;4.30;2.30;;;9.10;99.90;;;;;;5043862;28;20184;-81
2022/02/14 04:31:01;;;;;;;3.70;2.27;;;9.10;99.90;;;;;;5043507;28;20230;-82
2022/02/14 04:33:27;;;;;;;6.40;2.80;;;9.10;99.90;;;;;;5043127;28;20225;-81
2022/02/14 04:35:53;;;;;;;5.30;2.60;;;9.10;99.90;;;;;;5041279;28;20212;-81
2022/02/14 04:38:19;;;;;;;4.87;2.20;;;9.00;99.90;;;;;;5040622;28;20274;-82
2022/02/14 04:40:44;;;;;;;4.47;2.13;;;9.00;99.90;;;;;;5041102;28;20421;-81
2022/02/14 04:43:10;;;;;;;3.90;2.07;;;9.00;99.90;;;;;;5040469;28;20358;-81
2022/02/14 04:45:36;;;;;;;4.53;2.53;;;9.10;99.90;;;;;;5040860;28;20211;-81
2022/02/14 04:48:03;;;;;;;5.07;2.53;;;9.10;99.90;;;;;;5038864;28;20700;-81
2022/02/14 04:50:29;;;;;;;3.90;2.30;;;9.10;99.90;;;;;;5039577;28;20423;-81
2022/02/14 04:52:55;;;;;;;4.30;2.27;;;9.10;99.90;;;;;;5038411;28;20422;-81
2022/02/14 04:55:21;;;;;;;4.67;2.60;;;9.10;99.90;;;;;;5038492;28;20458;-82
2022/02/14 04:57:47;;;;;;;4.83;2.50;;;9.10;99.90;;;;;;5037626;28;20180;-81
2022/02/14 05:00:14;;;;;;;5.93;2.50;;;9.10;99.90;;;;;;5038372;28;20853;-81
2022/02/14 05:02:40;;;;;;;4.27;2.40;;;9.10;99.90;;;;;;5037171;28;20203;-81
2022/02/14 05:05:06;;;;;;;5.80;2.40;;;9.10;99.90;;;;;;5037456;28;20934;-81
2022/02/14 05:07:33;;;;;;;5.27;2.50;;;9.10;99.90;;;;;;5036286;28;20745;-81
2022/02/14 05:09:59;;;;;;;4.93;2.30;;;9.10;99.90;;;;;;5036621;28;20799;-81
2022/02/14 05:12:24;;;;;;;5.07;2.23;;;9.10;99.90;;;;;;5035765;28;20434;-81
2022/02/14 05:14:50;;;;;;;4.20;2.40;;;9.10;99.90;;;;;;5036267;28;20466;-80
2022/02/14 05:17:16;;;;;;;5.43;2.13;;;9.10;99.90;;;;;;5034635;28;20196;-81
2022/02/14 05:19:42;;;;;;;4.73;2.73;;;9.10;99.90;;;;;;5023005;28;20197;-81
2022/02/14 05:22:08;;;;;;;3.60;2.30;;;9.10;99.90;;;;;;5034629;28;20613;-81
2022/02/14 05:24:33;;;;;;;4.93;2.43;;;9.10;99.90;;;;;;5067240;28;20186;-81
2022/02/14 05:26:59;;;;;;;4.70;2.60;;;9.20;99.90;;;;;;5067578;28;20286;-81
2022/02/14 05:29:28;;;;;;;4.40;2.93;;;9.20;99.90;;;;;;5067925;28;20667;-80
2022/02/14 05:31:56;;;;;;;5.93;2.50;;;9.20;99.90;;;;;;5068371;28;20180;-81
2022/02/14 05:34:22;;;;;;;3.70;2.13;;;9.20;99.90;;;;;;5066759;28;20426;-81
2022/02/14 05:36:48;;;;;;;5.00;2.40;;;9.20;99.90;;;;;;5066577;28;20442;-81
2022/02/14 05:39:14;;;;;;;3.97;2.10;;;9.20;99.90;;;;;;5066618;28;20501;-81
2022/02/14 05:41:39;;;;;;;5.37;2.33;;;9.20;99.90;;;;;;5066190;28;20175;-80
2022/02/14 05:44:05;;;;;;;7.17;2.70;;;9.10;99.90;;;;;;5066189;28;20183;-81
2022/02/14 05:46:31;;;;;;;3.33;2.00;;;9.10;99.90;;;;;;5065983;28;20290;-81
2022/02/14 05:48:58;;;;;;;5.87;2.20;;;9.10;99.90;;;;;;5066321;28;20443;-81
2022/02/14 05:51:23;;;;;;;6.53;2.70;;;9.10;99.90;;;;;;5066668;28;20434;-81
2022/02/14 05:53:50;;;;;;;5.30;2.13;;;9.10;99.90;;;;;;5069512;28;20419;-81
2022/02/14 05:56:16;;;;;;;4.80;2.10;;;9.10;99.90;;;;;;5069172;28;20631;-81
2022/02/14 05:58:42;;;;;;;2.73;1.73;;;9.10;99.90;;;;;;5069079;28;20869;-81
2022/02/14 06:01:08;;;;;;;4.30;2.17;;;9.10;99.90;;;;;;5090858;22;20490;-81
2022/02/14 06:03:34;;;;;;;2.93;1.60;;;9.10;99.90;;;;;;5051954;28;20934;-81
2022/02/14 06:06:00;;;;;;;3.73;1.90;;;9.20;99.90;;;;;;5035109;28;20191;-81
2022/02/14 06:08:26;;;;;;;3.27;1.80;;;9.20;99.90;;;;;;5036149;28;20177;-81
2022/02/14 06:10:51;;;;;;;3.53;1.70;;;9.20;99.90;;;;;;5036375;28;20953;-82
2022/02/14 06:13:17;;;;;;;4.33;2.10;;;9.20;99.90;;;;;;5036272;28;20196;-81
2022/02/14 06:15:43;;;;;;;4.17;2.23;;;9.30;99.90;;;;;;5035675;28;20204;-82
2022/02/14 06:18:09;;;;;;;3.00;1.90;;;9.20;99.90;;;;;;5050378;28;20422;-81
2022/02/14 06:20:35;;;;;;;4.23;2.40;;;9.30;99.90;;;;;;5035005;28;20945;-80
2022/02/14 06:23:01;;;;;;;7.27;1.80;;;9.30;99.90;;;;;;5034996;28;20457;-80
2022/02/14 06:25:26;;;;;;;8.20;2.40;;;9.30;99.90;;;;;;5050314;28;20670;-81
2022/02/14 06:27:52;;;;;;;3.47;1.80;;;9.30;99.90;;;;;;5034812;28;20188;-81
2022/02/14 06:30:19;;;;;;;6.00;2.20;;;9.30;99.90;;;;;;5034807;28;20201;-81
2022/02/14 06:32:45;;;;;;;3.50;1.70;;;9.30;99.90;;;;;;5050247;28;20440;-81
2022/02/14 06:35:11;;;;;;;3.50;2.10;;;9.30;99.90;;;;;;5034871;28;20462;-81
2022/02/14 06:37:37;;;;;;;3.47;1.83;;;9.30;99.90;;;;;;5034317;28;20423;-81
2022/02/14 06:40:04;;;;;;;3.37;2.00;;;9.30;99.90;;;;;;5034690;28;20443;-81
2022/02/14 06:42:29;;;;;;;4.63;1.70;;;9.30;99.90;;;;;;5034668;28;20599;-81
2022/02/14 06:44:55;;;;;;;4.13;2.20;;;9.40;99.90;;;;;;5050099;28;20415;-81
2022/02/14 06:47:21;;;;;;;5.40;2.50;;;9.40;99.90;;;;;;5049659;28;20216;-81
2022/02/14 06:49:46;;;;;;;3.00;1.70;;;9.40;99.90;;;;;;5034618;28;20184;-81
2022/02/14 06:52:12;;;;;;;2.73;1.80;;;9.40;99.90;;;;;;5034510;28;20172;-81
2022/02/14 06:54:37;;;;;;;5.00;2.03;;;9.40;99.90;;;;;;5034486;28;20211;-80
2022/02/14 06:57:03;;;;;;;4.10;1.70;;;9.40;99.90;;;;;;5034154;28;20185;-81
2022/02/14 06:59:29;;;;;;;3.37;1.93;;;9.50;99.90;;;;;;5034259;28;20623;-81
2022/02/14 07:01:54;;;;;;;4.43;2.13;;;9.50;99.90;;;;;;5034207;28;20212;-81
2022/02/14 07:04:20;;;;;;;4.93;2.27;;;9.70;99.90;;;;;;5034333;28;20187;-81
2022/02/14 07:06:46;;;;;;;5.10;2.07;;;9.70;99.90;;;;;;5033955;28;20177;-80
2022/02/14 07:09:12;;;;;;;3.80;1.90;;;9.80;99.90;;;;;;5034381;28;20620;-81
2022/02/14 07:11:43;;;;;;;3.43;2.00;;;9.80;99.90;;;;;;5049552;28;20451;-80
2022/02/14 07:14:10;;;;;;;3.10;1.70;;;9.90;99.90;;;;;;5033997;28;20234;-80
2022/02/14 07:16:35;;;;;;;2.57;1.40;;;10.00;99.90;;;;;;5033643;28;20553;-80
2022/02/14 07:19:01;;;;;;;2.90;1.63;;;10.00;99.90;;;;;;5033985;28;20462;-80
2022/02/14 07:21:28;;;;;;;3.00;1.93;;;10.10;99.90;;;;;;5049370;28;20200;-81
2022/02/14 07:23:54;;;;;;;3.30;1.70;;;10.20;99.90;;;;;;5049356;28;20367;-80
2022/02/14 07:26:20;;;;;;;3.43;1.90;;;10.30;99.90;;;;;;5033851;28;20848;-81
2022/02/14 07:28:45;;;;;;;5.73;2.90;;;10.40;99.90;;;;;;5033675;28;20787;-81
2022/02/14 07:31:11;;;;;;;4.00;1.63;;;10.40;99.90;;;;;;5033791;28;20439;-80
2022/02/14 07:33:37;;;;;;;3.30;1.70;;;10.50;99.90;;;;;;5049182;28;20198;-81
2022/02/14 07:36:03;;;;;;;2.90;1.60;;;10.50;99.90;;;;;;5048863;28;20667;-81
2022/02/14 07:38:29;;;;;;;3.83;1.77;;;10.60;99.90;;;;;;5033430;28;20179;-81
2022/02/14 07:40:54;;;;;;;4.13;2.10;;;10.60;99.90;;;;;;5033454;28;20435;-80
2022/02/14 07:43:21;;;;;;;3.63;1.87;;;10.70;99.90;;;;;;5049004;28;20190;-81
2022/02/14 07:45:46;;;;;;;4.10;1.80;;;10.70;99.90;;;;;;5033257;28;20183;-80
2022/02/14 07:48:12;;;;;;;8.00;2.90;;;10.80;99.90;;;;;;5033297;28;20423;-81
2022/02/14 07:50:38;;;;;;;3.37;2.17;;;10.70;99.90;;;;;;5033379;28;20236;-81
2022/02/14 07:53:03;;;;;;;5.80;1.80;;;10.80;99.90;;;;;;5033396;28;20238;-81
2022/02/14 07:55:29;;;;;;;3.33;1.93;;;10.90;99.90;;;;;;5031871;28;20217;-81
2022/02/14 07:57:55;;;;;;;3.10;1.80;;;11.00;99.90;;;;;;5031327;28;20246;-83
2022/02/14 08:00:22;;;;;;;3.13;1.80;;;11.10;99.90;;;;;;5031814;28;20305;-82
2022/02/14 08:02:48;;;;;;;3.43;1.70;;;11.20;99.90;;;;;;5047923;28;20238;-82
2022/02/14 08:05:13;;;;;;;3.20;1.87;;;11.30;99.90;;;;;;5031455;28;20426;-82
2022/02/14 08:07:39;;;;;;;7.30;2.47;;;11.30;99.90;;;;;;5031223;28;20556;-82
2022/02/14 08:10:05;;;;;;;6.50;2.30;;;11.40;99.90;;;;;;5032719;28;20233;-82
2022/02/14 08:12:31;;;;;;;3.83;1.60;;;11.40;99.90;;;;;;5047966;28;20742;-82
2022/02/14 08:14:57;;;;;;;4.53;1.90;;;11.40;99.90;;;;;;5031791;28;20499;-82
2022/02/14 08:17:23;;;;;;;8.60;2.00;;;11.40;99.90;;;;;;5047572;28;20455;-82
2022/02/14 08:19:48;;;;;;;6.40;1.50;;;11.50;99.90;;;;;;5032429;28;20181;-82
2022/02/14 08:22:14;;;;;;;4.80;1.90;;;11.60;99.90;;;;;;5031221;28;20558;-82
2022/02/14 08:24:39;;;;;;;3.17;1.70;;;11.80;99.90;;;;;;5031315;28;20180;-83
2022/02/14 08:27:05;;;;;;;5.50;1.90;;;11.90;99.90;;;;;;5030565;28;20234;-82
2022/02/14 08:29:31;;;;;;;3.67;2.10;;;12.00;99.90;;;;;;5030995;28;20184;-82
2022/02/14 08:31:56;;;;;;;3.47;1.60;;;12.00;99.90;;;;;;5030949;28;20212;-83
2022/02/14 08:34:22;;;;;;;3.73;1.70;;;12.00;99.90;;;;;;5031084;28;20242;-82
2022/02/14 08:36:48;;;;;;;2.80;1.43;;;12.00;99.90;;;;;;5031812;28;20231;-81
2022/02/14 08:39:14;;;;;;;2.70;1.30;;;12.00;99.90;;;;;;5032130;28;20727;-83
2022/02/14 08:41:41;;;;;;;3.80;1.60;;;12.00;99.90;;;;;;5030611;28;20447;-84
2022/02/14 08:44:07;;;;;;;3.33;1.60;;;12.00;99.90;;;;;;5030882;28;20488;-82
2022/02/14 08:46:33;;;;;;;3.20;1.53;;;12.20;99.90;;;;;;5031682;28;20423;-82
2022/02/14 08:49:00;;;;;;;3.90;1.53;;;12.20;99.90;;;;;;5032180;28;20506;-82
2022/02/14 08:51:26;;;;;;;3.63;1.63;;;12.30;99.90;;;;;;5037307;28;20466;-81
2022/02/14 08:53:53;;;;;;;2.93;1.83;;;12.30;99.90;;;;;;5031912;28;20559;-82
2022/02/14 08:56:19;;;;;;;3.33;1.40;;;12.30;99.90;;;;;;5031791;28;20398;-82
2022/02/14 08:58:48;;;;;;;3.33;1.60;;;12.30;99.90;;;;;;5047791;28;20447;-81
2022/02/14 09:01:15;;;;;;;3.17;1.30;;;12.40;99.90;;;;;;5034257;28;20823;-81
2022/02/14 09:03:41;;;;;;;2.67;1.63;;;12.40;99.90;;;;;;5046987;28;20477;-83
2022/02/14 09:06:08;;;;;;;2.87;1.40;;;12.50;99.90;;;;;;5032027;28;20438;-82
2022/02/14 09:08:33;;;;;;;2.33;1.30;;;12.60;99.90;;;;;;5031848;28;20419;-82
2022/02/14 09:10:59;;;;;;;3.80;1.43;;;12.70;99.90;;;;;;5031804;28;21001;-82
2022/02/14 09:13:26;;;;;;;3.53;1.37;;;12.90;99.90;;;;;;5047304;28;20212;-82
2022/02/14 09:15:51;;;;;;;7.40;1.30;;;12.90;99.90;;;;;;5046580;28;20212;-82
2022/02/14 09:18:17;;;;;;;2.40;1.50;;;13.00;99.90;;;;;;5031712;28;20414;-82
2022/02/14 09:20:42;;;;;;;3.00;1.43;;;13.10;99.90;;;;;;5031738;28;20283;-82
2022/02/14 09:23:08;;;;;;;2.83;1.40;;;13.20;99.90;;;;;;5047780;28;20187;-82
2022/02/14 09:25:34;;;;;;;4.03;1.23;;;13.40;99.90;;;;;;5047648;28;20549;-83
2022/02/14 09:28:01;;;;;;;2.40;1.10;;;13.50;99.90;;;;;;5051589;28;20188;-82
2022/02/14 09:30:27;;;;;;;3.47;1.50;;;13.40;99.90;;;;;;5036717;28;20621;-84
2022/02/14 09:32:53;;;;;;;2.97;1.23;;;13.30;99.90;;;;;;5038277;28;20848;-82
2022/02/14 09:35:26;;;;;;;4.47;1.97;;;13.40;99.90;;;;;;5036185;28;20490;-82
2022/02/14 09:37:56;;;;;;;2.70;1.20;;;13.40;99.90;;;;;;5035635;28;20236;-82
2022/02/14 09:40:23;;;;;;;3.53;1.43;;;13.50;99.90;;;;;;5050804;28;21027;-82
2022/02/14 09:42:52;;;;;;;3.00;1.00;;;13.50;99.90;;;;;;5035626;28;20761;-83
2022/02/14 09:45:19;;;;;;;3.33;1.30;;;13.50;99.90;;;;;;5035655;28;20406;-82
2022/02/14 09:47:45;;;;;;;3.90;0.97;;;13.50;99.90;;;;;;5050891;28;20431;-82
2022/02/14 09:50:11;;;;;;;2.43;1.20;;;13.60;99.90;;;;;;5036579;28;20435;-81
2022/02/14 09:52:37;;;;;;;3.60;1.20;;;13.50;99.90;;;;;;5049572;28;20439;-83
2022/02/14 09:55:04;;;;;;;4.67;1.70;;;13.30;99.90;;;;;;5034806;28;20208;-83
2022/02/14 09:57:29;;;;;;;2.33;1.10;;;13.20;99.90;;;;;;5035188;28;20191;-83
2022/02/14 09:59:55;;;;;;;2.30;1.00;;;13.30;99.90;;;;;;5050428;28;20411;-83
2022/02/14 10:02:25;;;;;;;3.27;1.20;;;13.40;99.90;;;;;;5035402;28;20184;-84
2022/02/14 10:05:06;;;;;;;2.30;0.90;;;13.50;99.90;;;;;;5050769;28;20176;-84
2022/02/14 10:08:00;;;;;;;2.40;1.00;;;13.30;99.90;;;;;;5050523;28;20419;-83
2022/02/14 10:10:28;;;;;;;4.70;1.10;;;13.00;99.90;;;;;;5048912;28;20446;-83
2022/02/14 10:12:59;;;;;;;2.30;1.17;;;12.90;99.90;;;;;;5050542;28;20423;-83
2022/02/14 10:15:25;;;;;;;4.10;1.83;;;12.50;99.90;;;;;;5050158;28;20469;-83
2022/02/14 10:17:59;;;;;;;6.97;2.20;;;12.30;99.90;;;;;;5050141;28;20455;-85
2022/02/14 10:20:27;;;;;;;2.63;1.13;;;12.20;99.90;;;;;;5034892;28;20458;-84
2022/02/14 10:23:02;;;;;;;2.30;1.20;;;12.10;99.90;;;;;;5034981;28;20425;-83
2022/02/14 10:25:43;;;;;;;2.83;0.90;;;11.90;99.90;;;;;;5050336;28;20453;-83
2022/02/14 10:28:22;;;;;;;2.60;1.00;;;12.00;99.90;;;;;;5034645;28;20445;-83
2022/02/14 10:31:01;;;;;;;2.63;1.10;;;12.10;99.90;;;;;;5049955;28;20474;-84
2022/02/14 10:33:56;;;;;;;3.80;1.20;;;12.20;99.90;;;;;;5035236;28;20415;-83
2022/02/14 10:36:33;;;;;;;2.50;1.20;;;12.30;99.90;;;;;;5034448;28;20508;-84
2022/02/14 10:39:07;;;;;;;2.60;1.23;;;12.20;99.90;;;;;;5049652;28;20414;-83
2022/02/14 10:41:33;;;;;;;2.60;1.13;;;12.40;99.90;;;;;;5034641;28;20968;-82
2022/02/14 10:44:07;;;;;;;2.70;1.27;;;12.50;99.90;;;;;;5049878;28;20511;-83
2022/02/14 10:46:33;;;;;;;2.60;1.20;;;12.60;99.90;;;;;;5049671;28;20266;-83
2022/02/14 10:49:01;;;;;;;3.40;1.10;;;12.50;99.90;;;;;;5049850;28;20459;-84
2022/02/14 10:51:26;;;;;;;2.43;1.10;;;12.40;99.90;;;;;;5049696;28;20204;-83
2022/02/14 10:53:55;;;;;;;4.57;1.20;;;12.50;99.90;;;;;;5034413;28;20831;-84
2022/02/14 10:56:22;;;;;;;2.60;1.10;;;12.60;99.90;;;;;;5034539;28;20609;-83
2022/02/14 10:58:49;;;;;;;2.30;1.17;;;12.90;99.90;;;;;;5034242;28;20417;-83
2022/02/14 11:01:16;;;;;;;4.10;1.27;;;13.40;99.90;;;;;;5049452;28;20462;-84
2022/02/14 11:03:43;;;;;;;3.37;1.40;;;13.30;99.90;;;;;;5049583;28;20407;-83
2022/02/14 11:06:11;;;;;;;2.40;1.07;;;13.30;99.90;;;;;;5049258;28;20842;-84
2022/02/14 11:08:38;;;;;;;4.63;1.83;;;13.00;99.90;;;;;;5049119;28;20510;-83
2022/02/14 11:11:05;;;;;;;3.20;1.00;;;12.90;99.90;;;;;;5033971;28;20435;-82
2022/02/14 11:13:32;;;;;;;2.20;1.00;;;12.80;99.90;;;;;;5034046;28;20422;-83
2022/02/14 11:15:59;;;;;;;2.27;1.00;;;13.20;99.90;;;;;;5049086;28;20509;-82
2022/02/14 11:18:38;;;;;;;2.53;1.37;;;14.60;99.90;;;;;;5049275;28;20415;-84
2022/02/14 11:21:04;;;;;;;4.60;1.50;;;14.80;99.90;;;;;;5033791;28;20433;-83
2022/02/14 11:23:41;;;;;;;3.43;1.30;;;14.20;99.90;;;;;;5034088;28;20411;-82
2022/02/14 11:26:20;;;;;;;4.27;1.20;;;14.60;99.90;;;;;;5049141;28;20957;-83
2022/02/14 11:28:53;;;;;;;2.80;1.40;;;15.00;99.90;;;;;;5049080;28;20922;-83
2022/02/14 11:31:20;;;;;;;2.87;1.37;;;17.30;99.90;;;;;;5049024;28;20470;-83
2022/02/14 11:34:03;;;;;;;2.53;1.20;;;18.60;99.90;;;;;;5034133;28;20437;-83
2022/02/14 11:36:31;;;;;;;3.90;1.40;;;20.10;99.90;;;;;;5033493;28;21011;-83
2022/02/14 11:39:04;;;;;;;4.10;1.10;;;21.50;99.90;;;;;;5033843;28;20411;-83
2022/02/14 11:41:48;;;;;;;2.93;1.00;;;22.80;93.20;;;;;;5033818;28;20423;-83
2022/02/14 11:44:14;;;;;;;4.63;1.77;;;23.70;89.50;;;;;;5049152;28;20415;-84
2022/02/14 11:46:54;;;;;;;3.07;1.20;;;24.00;71.50;;;;;;5048673;28;20434;-84
2022/02/14 11:49:44;;;;;;;2.80;1.10;;;24.60;74.30;;;;;;5048439;28;20518;-83
2022/02/14 11:52:25;;;;;;;2.77;1.30;;;25.50;70.50;;;;;;5033941;28;20410;-84
2022/02/14 11:54:50;;;;;;;4.23;1.20;;;25.70;65.10;;;;;;5034076;28;20871;-84
2022/02/14 11:57:36;;;;;;;2.77;1.10;;;26.50;61.50;;;;;;5033264;28;20504;-83
2022/02/14 12:00:19;;;;;;;3.80;1.20;;;23.10;60.30;;;;;;5048324;28;20687;-83
2022/02/14 12:02:59;;;;;;;2.60;1.00;;;20.90;67.70;;;;;;5152284;23;20555;-78
2022/02/14 12:06:04;;;;;;;2.60;1.10;;;19.40;81.30;;;;;;5056950;28;20426;-80
2022/02/14 12:08:58;;;;;;;2.40;1.10;;;18.30;94.20;;;;;;5057829;28;20890;-80
2022/02/14 12:11:47;;;;;;;3.47;1.10;;;18.30;97.40;;;;;;5058215;28;20478;-79
2022/02/14 12:14:17;;;;;;;3.47;1.20;;;18.50;97.00;;;;;;5056915;28;20428;-79
2022/02/14 12:22:44;;;;;;;3.27;1.27;;;17.90;97.80;;;;;;5059219;28;20529;-80
2022/02/14 12:25:10;;;;;;;2.97;1.40;;;17.30;99.70;;;;;;5056839;28;20426;-79
2022/02/14 12:27:36;;;;;;;3.00;1.33;;;16.60;99.90;;;;;;5056360;28;20579;-79
2022/02/14 12:30:22;;;;;;;4.50;1.40;;;15.70;99.90;;;;;;5057250;28;20446;-78
2022/02/14 12:33:08;;;;;;;2.60;1.20;;;15.60;99.90;;;;;;5057236;28;20418;-79
2022/02/14 12:35:39;;;;;;;2.90;1.30;;;15.70;99.90;;;;;;5057612;28;20509;-79
2022/02/14 12:38:06;;;;;;;2.83;1.40;;;15.40;99.90;;;;;;5057049;28;20932;-78
2022/02/14 12:40:53;;;;;;;3.10;1.63;;;15.30;99.90;;;;;;5040307;28;20442;-79
2022/02/14 12:43:26;;;;;;;3.57;1.43;;;15.60;99.90;;;;;;5057758;28;20429;-79
2022/02/14 12:45:58;;;;;;;3.40;1.20;;;16.80;99.90;;;;;;5056957;28;20441;-79
2022/02/14 12:48:33;;;;;;;4.07;1.10;;;17.90;99.90;;;;;;5057092;28;20497;-80
2022/02/14 12:51:05;;;;;;;2.40;1.10;;;17.10;99.90;;;;;;5056700;28;20424;-80
2022/02/14 12:53:34;;;;;;;2.60;1.03;;;16.80;99.90;;;;;;5057139;28;20418;-81
2022/02/14 12:56:33;;;;;;;5.03;1.30;;;16.90;99.90;;;;;;5056355;28;20474;-79
2022/02/14 12:59:18;;;;;;;2.37;1.10;;;17.30;99.90;;;;;;5047810;28;20464;-78
2022/02/14 13:01:46;;;;;;;3.03;1.20;;;17.30;99.90;;;;;;5045979;28;20454;-79
2022/02/14 13:04:14;;;;;;;2.57;1.10;;;17.30;99.90;;;;;;5047096;28;20536;-79
2022/02/14 13:06:51;;;;;;;5.37;1.60;;;17.80;99.90;;;;;;5048390;28;20990;-79